createdAt,value
2022-10-26T00:01:13.032Z,65.94
2022-10-26T00:03:41.991Z,66.38
2022-10-26T00:06:14.843Z,65.87
2022-10-26T00:08:41.507Z,65.81
2022-10-26T00:15:21.146Z,66.31
2022-10-26T00:17:48.785Z,66.53
2022-10-26T00:20:15.612Z,66.58
2022-10-26T00:22:42.331Z,66.51
2022-10-26T00:25:09.307Z,66.46
2022-10-26T00:27:36.053Z,66.41
2022-10-26T00:30:06.585Z,66.67
2022-10-26T00:32:34.115Z,66.82
2022-10-26T00:35:10.507Z,66.46
2022-10-26T00:37:48.040Z,66.23
2022-10-26T00:40:15.070Z,66.66
2022-10-26T00:42:41.757Z,66.96
2022-10-26T00:45:24.492Z,67.05
2022-10-26T00:47:52.869Z,67.15
2022-10-26T00:50:26.477Z,66.64
2022-10-26T00:52:54.681Z,66.82
2022-10-26T00:55:26.936Z,67.06
2022-10-26T00:57:54.741Z,66.85
2022-10-26T01:00:22.253Z,67.46
2022-10-26T01:02:52.651Z,67.13
2022-10-26T01:05:19.417Z,67.45
2022-10-26T01:07:48.096Z,67.45
2022-10-26T01:10:15.355Z,67.38
2022-10-26T01:12:42.624Z,67.54
2022-10-26T01:15:10.049Z,67.93
2022-10-26T01:18:01.227Z,67.54
2022-10-26T01:21:09.171Z,67.30
2022-10-26T01:24:01.470Z,67.14
2022-10-26T01:26:27.972Z,67.37
2022-10-26T01:29:06.629Z,67.43
2022-10-26T01:31:41.961Z,67.48
2022-10-26T01:34:21.727Z,67.93
2022-10-26T01:37:00.154Z,68.01
2022-10-26T01:39:48.751Z,68.09
2022-10-26T01:42:18.128Z,67.32
2022-10-26T01:44:53.270Z,67.19
2022-10-26T01:47:21.303Z,66.77
2022-10-26T01:49:56.357Z,66.55
2022-10-26T01:52:23.844Z,66.42
2022-10-26T01:54:50.427Z,66.55
2022-10-26T01:57:20.844Z,66.64
2022-10-26T01:59:53.665Z,66.96
2022-10-26T02:02:29.367Z,66.91
2022-10-26T02:05:33.147Z,66.94
2022-10-26T02:08:23.545Z,66.68
2022-10-26T02:11:17.393Z,66.54
2022-10-26T02:14:00.809Z,66.50
2022-10-26T02:16:54.000Z,66.63
2022-10-26T02:19:32.988Z,66.50
2022-10-26T02:22:13.118Z,66.79
2022-10-26T02:24:41.211Z,66.59
2022-10-26T02:27:13.314Z,66.74
2022-10-26T02:29:41.294Z,66.28
2022-10-26T02:32:09.088Z,66.46
2022-10-26T02:34:38.040Z,66.51
2022-10-26T02:37:06.041Z,66.38
2022-10-26T02:39:36.026Z,66.33
2022-10-26T02:42:06.149Z,66.50
2022-10-26T02:44:40.097Z,66.54
2022-10-26T02:47:06.718Z,66.90
2022-10-26T02:49:33.288Z,66.92
2022-10-26T02:52:12.395Z,66.71
2022-10-26T02:54:56.820Z,67.03
2022-10-26T02:57:33.045Z,66.76
2022-10-26T03:00:01.050Z,66.50
2022-10-26T03:02:30.096Z,67.01
2022-10-26T03:04:56.979Z,67.26
2022-10-26T03:07:24.834Z,67.85
2022-10-26T03:09:51.681Z,67.71
2022-10-26T03:12:18.575Z,67.79
2022-10-26T03:14:45.162Z,67.57
2022-10-26T03:17:11.701Z,68.14
2022-10-26T03:19:38.231Z,67.81
2022-10-26T03:22:04.938Z,67.81
2022-10-26T03:24:31.577Z,67.69
2022-10-26T03:27:01.172Z,68.07
2022-10-26T03:29:28.931Z,68.15
2022-10-26T03:31:55.470Z,68.11
2022-10-26T03:34:22.134Z,67.93
2022-10-26T03:36:48.977Z,67.80
2022-10-26T03:39:15.608Z,67.87
2022-10-26T03:41:42.205Z,67.25
2022-10-26T03:44:09.013Z,67.21
2022-10-26T03:46:35.549Z,67.37
2022-10-26T03:49:02.050Z,67.25
2022-10-26T03:51:28.582Z,67.29
2022-10-26T03:53:55.113Z,67.40
2022-10-26T03:56:22.110Z,67.40
2022-10-26T03:58:48.718Z,67.55
2022-10-26T04:01:15.441Z,67.60
2022-10-26T04:03:45.668Z,67.51
2022-10-26T04:06:12.513Z,67.16
2022-10-26T04:08:41.362Z,66.63
2022-10-26T04:11:08.048Z,66.82
2022-10-26T04:13:34.928Z,67.12
2022-10-26T04:16:01.596Z,66.49
2022-10-26T04:18:28.161Z,66.51
2022-10-26T04:20:54.810Z,66.99
2022-10-26T04:23:21.738Z,66.88
2022-10-26T04:25:48.375Z,66.84
2022-10-26T04:28:15.077Z,66.88
2022-10-26T04:30:41.890Z,66.50
2022-10-26T04:33:08.716Z,66.77
2022-10-26T04:35:35.884Z,66.91
2022-10-26T04:38:05.341Z,67.23
2022-10-26T04:40:33.800Z,67.26
2022-10-26T04:43:00.634Z,67.48
2022-10-26T04:45:30.854Z,67.15
2022-10-26T04:48:06.310Z,67.30
2022-10-26T04:50:33.146Z,66.86
2022-10-26T04:53:03.196Z,66.44
2022-10-26T04:55:29.727Z,66.27
2022-10-26T04:57:58.651Z,66.17
2022-10-26T05:00:30.039Z,66.31
2022-10-26T05:03:03.418Z,66.25
2022-10-26T05:05:32.359Z,66.06
2022-10-26T05:07:59.360Z,65.74
2022-10-26T05:10:27.196Z,65.56
2022-10-26T05:12:55.330Z,65.36
2022-10-26T05:15:22.599Z,65.42
2022-10-26T05:17:56.393Z,64.95
2022-10-26T05:20:29.101Z,64.82
2022-10-26T05:22:56.762Z,64.51
2022-10-26T05:25:23.857Z,64.85
2022-10-26T05:27:50.550Z,64.50
2022-10-26T05:30:17.204Z,64.18
2022-10-26T05:32:43.812Z,64.50
2022-10-26T05:35:10.398Z,64.19
2022-10-26T05:37:37.053Z,64.34
2022-10-26T05:40:04.039Z,63.65
2022-10-26T05:42:30.901Z,63.67
2022-10-26T05:44:57.831Z,63.90
2022-10-26T05:47:24.447Z,63.62
2022-10-26T05:49:51.170Z,63.45
2022-10-26T05:52:17.792Z,63.45
2022-10-26T05:54:44.508Z,63.08
2022-10-26T05:57:14.887Z,63.79
2022-10-26T05:59:41.758Z,63.26
2022-10-26T06:02:32.076Z,62.71
2022-10-26T06:05:04.479Z,62.72
2022-10-26T06:07:31.686Z,62.42
2022-10-26T06:09:58.932Z,62.05
2022-10-26T06:12:26.593Z,62.84
2022-10-26T06:14:53.464Z,62.99
2022-10-26T06:17:43.531Z,62.94
2022-10-26T06:20:46.809Z,63.02
2022-10-26T06:23:41.936Z,62.72
2022-10-26T06:26:30.262Z,62.66
2022-10-26T06:29:30.680Z,63.27
2022-10-26T06:31:57.609Z,63.64
2022-10-26T06:34:36.066Z,63.64
2022-10-26T06:37:04.176Z,63.92
2022-10-26T06:39:35.580Z,63.45
2022-10-26T06:42:02.480Z,63.34
2022-10-26T06:44:29.376Z,62.99
2022-10-26T06:47:08.137Z,63.17
2022-10-26T06:49:55.568Z,63.16
2022-10-26T06:52:33.755Z,63.05
2022-10-26T06:55:00.817Z,63.11
2022-10-26T06:57:35.976Z,63.87
2022-10-26T07:00:07.254Z,63.87
2022-10-26T07:02:34.217Z,63.67
2022-10-26T07:05:01.084Z,64.60
2022-10-26T07:07:30.461Z,63.71
2022-10-26T07:09:57.156Z,63.60
2022-10-26T07:12:23.814Z,63.29
2022-10-26T07:14:51.009Z,63.46
2022-10-26T07:17:17.780Z,63.29
2022-10-26T07:19:44.999Z,63.70
2022-10-26T07:22:12.156Z,64.02
2022-10-26T07:24:39.796Z,64.29
2022-10-26T07:27:06.924Z,64.00
2022-10-26T07:29:35.475Z,63.56
2022-10-26T07:32:02.970Z,63.32
2022-10-26T07:34:29.656Z,64.60
2022-10-26T07:36:56.428Z,65.38
2022-10-26T07:39:23.590Z,65.19
2022-10-26T07:41:50.689Z,65.35
2022-10-26T07:44:17.637Z,65.11
2022-10-26T07:46:44.430Z,64.83
2022-10-26T07:49:11.702Z,64.67
2022-10-26T07:51:38.739Z,64.89
2022-10-26T07:54:05.720Z,65.29
2022-10-26T07:56:32.701Z,65.30
2022-10-26T07:58:59.549Z,65.06
2022-10-26T08:01:26.424Z,65.00
2022-10-26T08:03:54.702Z,65.25
2022-10-26T08:06:22.506Z,64.67
2022-10-26T08:08:49.489Z,64.98
2022-10-26T08:11:17.367Z,64.53
2022-10-26T08:13:44.449Z,64.35
2022-10-26T08:16:11.527Z,64.15
2022-10-26T08:18:38.197Z,63.31
2022-10-26T08:21:11.342Z,63.38
2022-10-26T08:23:39.810Z,63.24
2022-10-26T08:26:07.183Z,63.21
2022-10-26T08:28:34.170Z,62.63
2022-10-26T08:31:01.315Z,63.09
2022-10-26T08:33:27.987Z,62.78
2022-10-26T08:36:03.232Z,62.01
2022-10-26T08:38:29.952Z,60.86
2022-10-26T08:40:58.806Z,60.53
2022-10-26T08:43:35.150Z,60.42
2022-10-26T08:46:27.614Z,60.14
2022-10-26T08:49:22.144Z,59.68
2022-10-26T08:51:52.694Z,58.91
2022-10-26T08:54:35.549Z,58.03
2022-10-26T08:57:11.946Z,57.61
2022-10-26T08:59:44.323Z,57.33
2022-10-26T09:02:16.089Z,58.18
2022-10-26T09:04:43.336Z,57.44
2022-10-26T09:07:18.995Z,55.48
2022-10-26T09:10:15.502Z,55.45
2022-10-26T09:12:55.572Z,54.08
2022-10-26T09:15:28.110Z,53.80
2022-10-26T09:18:17.053Z,54.06
2022-10-26T09:21:12.262Z,53.55
2022-10-26T09:23:44.759Z,54.72
2022-10-26T09:26:26.875Z,54.42
2022-10-26T09:28:54.784Z,53.81
2022-10-26T09:31:23.336Z,53.75
2022-10-26T09:33:51.603Z,52.76
2022-10-26T09:36:20.780Z,52.77
2022-10-26T09:39:09.008Z,51.97
2022-10-26T09:41:43.845Z,52.05
2022-10-26T09:44:27.244Z,52.60
2022-10-26T09:47:01.053Z,53.17
2022-10-26T09:49:38.729Z,52.46
2022-10-26T09:52:05.351Z,52.49
2022-10-26T09:54:31.916Z,54.05
2022-10-26T09:57:01.771Z,54.57
2022-10-26T09:59:30.254Z,54.10
2022-10-26T10:01:56.995Z,54.15
2022-10-26T10:04:24.102Z,53.29
2022-10-26T10:07:00.935Z,53.85
2022-10-26T10:09:27.631Z,53.48
2022-10-26T10:11:56.812Z,53.68
2022-10-26T10:14:28.816Z,53.68
2022-10-26T10:17:02.549Z,53.36
2022-10-26T10:19:34.791Z,52.60
2022-10-26T10:22:25.109Z,52.18
2022-10-26T10:25:04.595Z,52.95
2022-10-26T10:27:33.394Z,52.73
2022-10-26T10:30:22.582Z,52.53
2022-10-26T10:33:06.712Z,51.56
2022-10-26T10:35:33.873Z,50.97
2022-10-26T10:38:01.344Z,50.80
2022-10-26T10:40:31.189Z,50.67
2022-10-26T10:43:12.538Z,49.36
2022-10-26T10:45:40.450Z,48.40
2022-10-26T10:48:13.796Z,48.79
2022-10-26T10:50:58.893Z,46.68
2022-10-26T10:53:44.473Z,45.45
2022-10-26T10:56:30.087Z,45.22
2022-10-26T10:59:04.227Z,44.30
2022-10-26T11:01:36.496Z,41.45
2022-10-26T11:04:18.394Z,41.46
2022-10-26T11:06:46.758Z,42.23
2022-10-26T11:09:16.853Z,42.66
2022-10-26T11:11:49.763Z,43.35
2022-10-26T11:14:30.628Z,44.08
2022-10-26T11:17:24.373Z,45.98
2022-10-26T11:19:59.632Z,46.25
2022-10-26T11:22:33.265Z,46.76
2022-10-26T11:25:06.079Z,47.68
2022-10-26T11:27:50.256Z,48.50
2022-10-26T11:30:22.764Z,49.27
2022-10-26T11:33:24.955Z,49.51
2022-10-26T11:36:06.107Z,50.77
2022-10-26T11:38:57.100Z,50.32
2022-10-26T11:41:31.232Z,50.31
2022-10-26T11:44:09.670Z,50.51
2022-10-26T11:46:49.822Z,50.77
2022-10-26T11:49:35.415Z,50.60
2022-10-26T11:52:25.663Z,50.28
2022-10-26T11:55:04.544Z,50.76
2022-10-26T11:57:36.596Z,50.70
2022-10-26T12:00:07.881Z,50.16
2022-10-26T12:05:33.266Z,50.40
2022-10-26T12:08:05.801Z,51.01
2022-10-26T12:10:39.184Z,51.14
2022-10-26T12:13:24.292Z,50.75
2022-10-26T12:16:04.089Z,50.36
2022-10-26T12:18:54.396Z,49.75
2022-10-26T12:21:26.442Z,50.24
2022-10-26T12:23:54.620Z,49.78
2022-10-26T12:26:24.548Z,49.60
2022-10-26T12:29:03.435Z,49.61
2022-10-26T12:31:36.112Z,48.85
2022-10-26T12:34:10.975Z,47.01
2022-10-26T12:36:55.479Z,44.28
2022-10-26T12:39:37.090Z,45.21
2022-10-26T12:42:06.785Z,46.73
2022-10-26T12:45:01.291Z,47.23
2022-10-26T12:47:27.899Z,48.82
2022-10-26T12:50:07.130Z,49.79
2022-10-26T12:52:52.221Z,49.42
2022-10-26T12:55:48.789Z,49.61
2022-10-26T12:58:49.141Z,49.91
2022-10-26T13:01:52.988Z,50.13
2022-10-26T13:04:37.920Z,49.36
2022-10-26T13:07:16.444Z,48.49
2022-10-26T13:09:51.125Z,48.06
2022-10-26T13:12:18.171Z,48.30
2022-10-26T13:15:02.332Z,49.23
2022-10-26T13:20:04.575Z,52.13
2022-10-26T13:22:31.384Z,53.13
2022-10-26T13:25:05.099Z,53.15
2022-10-26T13:27:36.743Z,53.14
2022-10-26T13:30:03.722Z,53.80
2022-10-26T13:32:33.719Z,54.54
2022-10-26T13:35:02.789Z,54.51
2022-10-26T13:37:34.086Z,54.89
2022-10-26T13:40:04.253Z,55.41
2022-10-26T13:42:44.537Z,55.42
2022-10-26T13:45:15.264Z,55.58
2022-10-26T13:47:41.869Z,55.83
2022-10-26T13:50:15.845Z,55.84
2022-10-26T13:52:48.109Z,55.42
2022-10-26T13:55:26.619Z,55.79
2022-10-26T13:57:59.186Z,55.51
2022-10-26T14:00:26.580Z,54.92
2022-10-26T14:02:54.588Z,54.54
2022-10-26T14:05:22.234Z,54.17
2022-10-26T14:07:58.150Z,54.40
2022-10-26T14:10:40.697Z,53.69
2022-10-26T14:13:10.666Z,53.52
2022-10-26T14:15:37.532Z,53.62
2022-10-26T14:18:04.713Z,54.35
2022-10-26T14:20:32.187Z,54.10
2022-10-26T14:22:59.044Z,53.16
2022-10-26T14:25:41.794Z,52.08
2022-10-26T14:28:45.865Z,52.52
2022-10-26T14:31:20.570Z,52.76
2022-10-26T14:33:47.613Z,53.40
2022-10-26T14:36:15.940Z,52.91
2022-10-26T14:38:47.713Z,53.11
2022-10-26T14:41:17.723Z,53.80
2022-10-26T14:43:47.963Z,53.90
2022-10-26T14:46:17.223Z,54.07
2022-10-26T14:48:54.641Z,53.60
2022-10-26T14:51:27.193Z,54.31
2022-10-26T14:53:58.358Z,55.03
2022-10-26T14:56:40.333Z,55.19
2022-10-26T14:59:19.324Z,55.17
2022-10-26T15:02:24.459Z,55.37
2022-10-26T15:05:04.504Z,55.96
2022-10-26T15:07:36.758Z,56.33
2022-10-26T15:10:04.387Z,55.95
2022-10-26T15:12:36.349Z,56.46
2022-10-26T15:15:14.190Z,56.78
2022-10-26T15:17:47.889Z,56.64
2022-10-26T15:20:21.808Z,56.34
2022-10-26T15:23:13.325Z,56.68
2022-10-26T15:25:50.107Z,57.16
2022-10-26T15:28:39.879Z,56.88
2022-10-26T15:31:12.478Z,57.57
2022-10-26T15:33:42.993Z,57.60
2022-10-26T15:36:17.372Z,57.89
2022-10-26T15:38:45.692Z,57.66
2022-10-26T15:41:33.469Z,57.88
2022-10-26T15:44:07.397Z,58.36
2022-10-26T15:46:42.033Z,58.19
2022-10-26T15:49:16.330Z,58.82
2022-10-26T15:51:46.675Z,58.29
2022-10-26T15:54:16.701Z,59.09
2022-10-26T15:56:44.075Z,59.46
2022-10-26T15:59:15.358Z,59.35
2022-10-26T16:01:45.150Z,59.72
2022-10-26T16:04:12.835Z,59.60
2022-10-26T16:06:43.780Z,59.82
2022-10-26T16:09:15.587Z,59.71
2022-10-26T16:11:45.575Z,60.17
2022-10-26T16:14:13.471Z,60.43
2022-10-26T16:16:41.252Z,60.39
2022-10-26T16:19:30.996Z,60.68
2022-10-26T16:21:57.361Z,61.03
2022-10-26T16:24:24.286Z,61.34
2022-10-26T16:26:51.163Z,60.87
2022-10-26T16:29:19.585Z,61.45
2022-10-26T16:31:47.085Z,61.84
2022-10-26T16:34:14.722Z,61.74
2022-10-26T16:36:41.826Z,61.92
2022-10-26T16:39:11.972Z,61.52
2022-10-26T16:41:38.562Z,62.19
2022-10-26T16:44:05.449Z,62.15
2022-10-26T16:46:32.028Z,62.04
2022-10-26T16:48:59.532Z,62.45
2022-10-26T16:51:28.039Z,62.23
2022-10-26T16:53:56.754Z,62.33
2022-10-26T16:56:28.580Z,62.76
2022-10-26T16:58:57.921Z,62.77
2022-10-26T17:01:25.561Z,62.81
2022-10-26T17:03:53.084Z,62.96
2022-10-26T17:06:20.241Z,62.33
2022-10-26T17:08:47.511Z,62.39
2022-10-26T17:11:20.135Z,62.60
2022-10-26T17:13:48.020Z,62.68
2022-10-26T17:16:18.650Z,62.90
2022-10-26T17:18:47.348Z,62.78
2022-10-26T17:21:17.006Z,62.85
2022-10-26T17:23:43.723Z,62.66
2022-10-26T17:26:12.517Z,63.16
2022-10-26T17:28:39.159Z,63.36
2022-10-26T17:31:13.954Z,63.01
2022-10-26T17:33:42.883Z,63.36
2022-10-26T17:36:11.258Z,63.36
2022-10-26T17:38:40.194Z,63.02
2022-10-26T17:41:14.964Z,63.03
2022-10-26T17:43:43.353Z,63.19
2022-10-26T17:46:12.389Z,62.95
2022-10-26T17:48:39.607Z,62.91
2022-10-26T17:51:10.019Z,63.34
2022-10-26T17:53:36.919Z,63.06
2022-10-26T17:56:08.397Z,63.20
2022-10-26T17:58:35.567Z,63.09
2022-10-26T18:01:04.311Z,63.35
2022-10-26T18:03:31.217Z,63.29
2022-10-26T18:05:59.206Z,63.41
2022-10-26T18:08:27.266Z,63.73
2022-10-26T18:10:55.571Z,63.45
2022-10-26T18:13:22.492Z,63.55
2022-10-26T18:15:49.075Z,63.89
2022-10-26T18:18:15.673Z,63.85
2022-10-26T18:20:42.205Z,63.47
2022-10-26T18:23:08.779Z,63.86
2022-10-26T18:25:36.541Z,63.52
2022-10-26T18:28:04.193Z,63.93
2022-10-26T18:30:30.982Z,63.77
2022-10-26T18:32:57.787Z,63.62
2022-10-26T18:35:24.549Z,63.89
2022-10-26T18:37:51.553Z,63.84
2022-10-26T18:40:18.708Z,63.86
2022-10-26T18:42:45.881Z,64.53
2022-10-26T18:45:12.651Z,64.15
2022-10-26T18:47:39.315Z,64.40
2022-10-26T18:50:06.380Z,64.94
2022-10-26T18:52:33.062Z,65.13
2022-10-26T18:54:59.714Z,65.49
2022-10-26T18:57:28.434Z,65.45
2022-10-26T18:59:55.327Z,65.59
2022-10-26T19:02:23.091Z,65.70
2022-10-26T19:04:53.040Z,65.76
2022-10-26T19:07:20.214Z,66.64
2022-10-26T19:09:47.151Z,66.67
2022-10-26T19:12:13.835Z,66.59
2022-10-26T19:14:40.495Z,66.63
2022-10-26T19:17:07.411Z,66.78
2022-10-26T19:19:35.396Z,67.01
2022-10-26T19:22:02.121Z,67.00
2022-10-26T19:24:28.814Z,67.14
2022-10-26T19:26:56.599Z,67.13
2022-10-26T19:29:23.396Z,67.08
2022-10-26T19:31:52.787Z,67.05
2022-10-26T19:34:19.723Z,66.82
2022-10-26T19:36:47.820Z,67.07
2022-10-26T19:39:16.317Z,67.53
2022-10-26T19:41:44.329Z,67.13
2022-10-26T19:44:12.097Z,67.30
2022-10-26T19:46:41.807Z,67.39
2022-10-26T19:49:09.024Z,67.45
2022-10-26T19:51:36.028Z,67.95
2022-10-26T19:54:04.472Z,68.26
2022-10-26T19:56:32.906Z,67.98
2022-10-26T19:58:59.853Z,68.09
2022-10-26T20:01:26.736Z,68.04
2022-10-26T20:03:53.684Z,68.18
2022-10-26T20:06:20.680Z,68.24
2022-10-26T20:08:48.943Z,68.49
2022-10-26T20:11:20.191Z,68.93
2022-10-26T20:13:48.105Z,68.85
2022-10-26T20:16:16.802Z,68.56
2022-10-26T20:18:47.596Z,68.31
2022-10-26T20:21:17.335Z,68.40
2022-10-26T20:23:45.129Z,68.18
2022-10-26T20:26:19.608Z,68.05
2022-10-26T20:28:48.846Z,68.05
2022-10-26T20:31:15.736Z,68.48
2022-10-26T20:33:42.432Z,68.62
2022-10-26T20:36:09.306Z,68.32
2022-10-26T20:38:36.409Z,68.38
2022-10-26T20:41:06.292Z,68.50
2022-10-26T20:43:39.122Z,68.83
2022-10-26T20:46:06.983Z,68.85
2022-10-26T20:48:34.077Z,68.78
2022-10-26T20:51:06.786Z,68.88
2022-10-26T20:53:42.683Z,68.88
2022-10-26T20:56:25.002Z,68.71
2022-10-26T20:58:55.875Z,69.13
2022-10-26T21:01:30.865Z,69.12
2022-10-26T21:03:59.919Z,69.07
2022-10-26T21:06:27.240Z,68.72
2022-10-26T21:08:55.711Z,68.66
2022-10-26T21:11:24.082Z,68.97
2022-10-26T21:13:54.295Z,68.98
2022-10-26T21:18:53.265Z,69.50
2022-10-26T21:21:19.949Z,69.53
2022-10-26T21:23:46.546Z,69.21
2022-10-26T21:26:13.551Z,69.25
2022-10-26T21:28:42.061Z,69.39
2022-10-26T21:31:10.755Z,69.12
2022-10-26T21:33:37.614Z,69.07
2022-10-26T21:36:06.963Z,69.38
2022-10-26T21:38:33.979Z,69.10
2022-10-26T21:41:12.081Z,69.23
2022-10-26T21:43:40.901Z,69.21
2022-10-26T21:46:08.406Z,68.84
2022-10-26T21:48:35.739Z,68.90
2022-10-26T21:51:04.350Z,69.07
2022-10-26T21:53:31.572Z,69.59
2022-10-26T21:56:09.891Z,69.51
2022-10-26T21:58:37.041Z,69.67
2022-10-26T22:01:22.691Z,69.45
2022-10-26T22:03:50.050Z,69.67
2022-10-26T22:06:21.468Z,69.63
2022-10-26T22:08:48.848Z,69.35
2022-10-26T22:11:19.404Z,69.47
2022-10-26T22:13:47.200Z,69.47
2022-10-26T22:16:22.870Z,69.58
2022-10-26T22:18:50.967Z,70.13
2022-10-26T22:21:19.416Z,70.03
2022-10-26T22:23:46.717Z,70.46
2022-10-26T22:26:18.859Z,70.20
2022-10-26T22:28:47.391Z,69.92
2022-10-26T22:31:23.935Z,70.71
2022-10-26T22:33:56.123Z,70.24
2022-10-26T22:36:23.773Z,70.39
2022-10-26T22:38:51.061Z,71.08
2022-10-26T22:41:19.405Z,70.37
2022-10-26T22:43:46.676Z,70.40
2022-10-26T22:46:24.737Z,70.28
2022-10-26T22:48:56.712Z,70.31
2022-10-26T22:51:25.350Z,70.24
2022-10-26T22:53:58.140Z,70.28
2022-10-26T22:58:54.162Z,70.07
2022-10-26T23:01:23.449Z,69.88
2022-10-26T23:03:50.675Z,69.91
2022-10-26T23:06:19.229Z,69.92
2022-10-26T23:08:46.289Z,69.98
2022-10-26T23:11:15.933Z,69.85
2022-10-26T23:13:42.757Z,70.24
2022-10-26T23:16:14.719Z,70.20
2022-10-26T23:18:41.861Z,70.25
2022-10-26T23:21:09.724Z,70.24
2022-10-26T23:23:37.200Z,70.51
2022-10-26T23:26:09.147Z,70.03
2022-10-26T23:28:36.539Z,70.28
2022-10-26T23:31:04.031Z,70.31
2022-10-26T23:33:31.231Z,70.57
2022-10-26T23:35:58.430Z,70.86
2022-10-26T23:38:26.021Z,71.18
2022-10-26T23:40:54.667Z,71.09
2022-10-26T23:43:21.624Z,71.43
2022-10-26T23:45:48.646Z,70.90
2022-10-26T23:48:16.436Z,70.88
2022-10-26T23:50:44.492Z,71.03
2022-10-26T23:53:12.457Z,71.23
2022-10-26T23:55:39.703Z,71.34
2022-10-26T23:58:06.822Z,72.09
